Willis Wharf, VA (23486)

8:01 AM EDT on August 01, 2014 (GMT -0400)
The Frog and PenguINN (KVAONLEY1) Elev 35 ft | 37.69 °N, 75.72 °W | Change Station

Current weather conditions updated 40 seconds ago

Clear
Clear
71.6 °F
Feels Like 71.6 °F
N
0.0
Wind Variable Wind from SSW
Gusts 0.0 mph

Today is forecast to be Cooler than yesterday. Thunderstorms tonight.

Today
High -- | Low -- °F
--% Chance of Precip.
Yesterday
High -- | Low -- °F
Precip. -- in
6:07 AM 8:11 PM
Waxing Crescent, 26% visible
Pressure 30.17 in
Visibility 10.0 miles
Clouds Clear
Dew Point 70 °F
Humidity 93%
Rainfall 0.00 in
Snow Depth Not available.
UV 1 out of 12
Pollen 4.30 out of 12
Air Quality Not available.
Flu Activity Not available.
METAR KWAL 011154Z 00000KT 10SM CLR 24/21 A3018 RMK AO2 SLP217 T02390211 10239 20222 53007

More Conditions Fewer Conditions

Pressure 30.17 in
Visibility 10.0 miles
Clouds Clear
Dew Point 70 °F
Humidity 93%
Rainfall 0.00 in
Snow Depth Not available.
UV 1 out of 12
Pollen 4.30 out of 12
Air Quality Not available.
Flu Activity Not available.
METAR KWAL 011154Z 00000KT 10SM CLR 24/21 A3018 RMK AO2 SLP217 T02390211 10239 20222 53007

More Conditions Fewer Conditions

10-Day Weather Forecast

Almanac

Astronomy

Aug. 01, 2014 Rise Set
Actual Time 6:07 AM EDT 8:11 PM EDT
Civil Twilight 5:38 AM EDT 8:40 PM EDT
Nautical Twilight 5:03 AM EDT 9:15 PM EDT
Astronomical Twilight 4:24 AM EDT 9:53 PM EDT
Moon 11:21 AM EDT 11:02 PM EDT
Length of Visible Light 15h 01m
Length of Day
14h 03m
Tomorrow will be 1m 49s shorter.
Waxing Crescent, 26% of the Moon is Illuminated
Today
Waxing Crescent
Aug 3
First Quarter
Aug 10
Full
Aug 17
Last Quarter
Aug 25
New

Today's Extremes

State Highs State Lows

Community

WunderPhotos

Upload Photos

1,739,544 photos uploaded!

Nearby

Snow Depth

Station Depth Elevation
No new snow has been reported.

Earthquake Activity

City Distance Mag. Time & Date
No recent earthquake activity has been reported nearby.
Minimum magnitude displayed is 2.5.

Coastal Water Temperatures

Place Temperature
Kiptopeke, VA 80.1 °F
Yorktown, VA 79.0 °F
Wachapreague, VA 78.1 °F

Nearby Weather Stations

Station Location Temp. Heat Index Dew Point Humidity Wind Precip. Elev Updated Type
The Frog and PenguINN, Onley, VA 71.6 °F - 70 °F 93% SSW  at  0.0 mph 0.00 in / hr 35 ft 8:00 AM EDT Normal
Parkers Creek tidal marsh, Parksley, VA 72.0 °F - 70 °F 94% South  at  0.0 mph 0.00 in / hr 15 ft 7:59 AM EDT Normal
County Rd, Parksley, VA 71.1 °F - 67 °F 87% South  at  0.0 mph 0.00 in / hr 39 ft 8:01 AM EDT Normal
Morning Ride Farm, Onemo, VA 71.2 °F 71 °F 66 °F 82% SE  at  1.4 mph 0.00 in / hr 9 ft 8:00 AM EDT Rapid Fire
Winter Harbor Retreat, Onemo, VA 71.8 °F - 69 °F 92% NNE  at  0.0 mph 0.00 in / hr 3 ft 8:01 AM EDT Rapid Fire
NERRS NERRS METEOROLOGICAL SITE SAINT JO, Wachapreague, VA 69 °F - 66 °F 90% SSW  at  3 mph 0.00 in / hr 0 ft 6:30 AM EDT MADIS

Show More Stations Show Fewer Stations